[ dis ] [ 2D / 3D / fur / alt / ptr ] [ doujin / kemono ] [ rs ] [ Rules ]

/2D/ - Drawn Bara

Name
Email
Subject
Comment
File
Password (For file deletion.)

[Barachan@Telegram] | [Barachan@Discord] |

File: 1443085391628.jpg (49.9 KB, 305x392, HomePageArtTools.jpg) ImgOps Exif Google iqdb

 No.57[Reply][Last 50 Posts]

RULES (PLEASE READ THEM):

1) Be polite to the drawfriends - they're drawing for you, after all.

2) Specifics, details and references pics are always appreciated, and increase the likelihood of your request being fulfilled.

3) Don't expect your request to be done straight away, or even at all - not every request is going to get done. If you think it's been overlooked, wait a while and relink or repost it.

4) Stick to fictional characters.

5) Don't be greedy - no begging for repeat or multiple fills. It's ungrateful to the drawfags who put their own time into filling for you.
If the characters or kink for them are rare, at least wait several threads before requesting again.

6) Usual board rules apply: make sure they're legal, etc.
524 posts and 364 image replies omitted. Click reply to view.

 No.10947

File: 1488320165615.png (515.91 KB, 600x1026, tumblr_inline_o5icupklcA1t….png) ImgOps Google iqdb

Requesting Deegan in a sling bikini. There's nothing of him so might as well start somewhere.

http://1.bp.blogspot.com/-3sypltmU_ys/UqqQzOC453I/AAAAAAAAN1Y/PYvFQFPx7_I/s1600/orange-print-topless-sling-bikini-002_1024x1024.jpg



File: 1443112472374.jpg (148.25 KB, 701x948, 38025329.jpg) ImgOps Exif Google iqdb

 No.94[Reply][Last 50 Posts]

rebooting this thread from the last board; post masked hunks
104 posts and 206 image replies omitted. Click reply to view.

 No.10970

File: 1488394546840-0.jpg (573.7 KB, 1024x768, 257213_p0.jpg) ImgOps Exif Google iqdb

File: 1488394546840-1.jpg (300.53 KB, 900x1187, 33453265_p0.jpg) ImgOps Exif Google iqdb

File: 1488394546840-2.jpg (480.57 KB, 768x1024, 34414021_big_p0.jpg) ImgOps Exif Google iqdb


 No.10971

File: 1488394715563-0.jpg (496.57 KB, 768x1024, 34414021_big_p1.jpg) ImgOps Exif Google iqdb

File: 1488394715563-1.jpg (502.92 KB, 768x1024, 34414021_big_p3.jpg) ImgOps Exif Google iqdb

File: 1488394715563-2.jpg (836.62 KB, 1080x1440, 36367960_p1.jpg) ImgOps Exif Google iqdb


 No.10972

File: 1488395074283-0.jpg (467.2 KB, 768x1024, 37148297_big_p1.jpg) ImgOps Exif Google iqdb

File: 1488395074283-1.jpg (470.56 KB, 768x1024, 37148297_big_p2.jpg) ImgOps Exif Google iqdb

File: 1488395074283-2.jpg (471.19 KB, 768x1024, 37148297_big_p3.jpg) ImgOps Exif Google iqdb


 No.10973

File: 1488395106866-0.jpg (481.66 KB, 768x1024, 37148297_big_p4.jpg) ImgOps Exif Google iqdb

File: 1488395106866-1.jpg (499.04 KB, 768x1024, 37148297_big_p5.jpg) ImgOps Exif Google iqdb

File: 1488395106866-2.jpg (799.65 KB, 1080x1440, 37382407_p3.jpg) ImgOps Exif Google iqdb


 No.10974

File: 1488395143920-0.jpg (809.26 KB, 1140x1520, 39868733_p0.jpg) ImgOps Exif Google iqdb

File: 1488395143921-1.jpg (110.57 KB, 1280x960, 41663538_p1.jpg) ImgOps Exif Google iqdb

File: 1488395143921-2.jpg (122.74 KB, 1280x960, 41663538_p2.jpg) ImgOps Exif Google iqdb




File: 1483737312444.jpg (225.66 KB, 1200x1200, 563456463.jpg) ImgOps Exif Google iqdb

 No.8068[Reply]

I am legitimately baffled how there is no booty thread. Let's get some butt(s) on display.
4 posts and 7 image replies omitted. Click reply to view.

 No.8073

File: 1483737673717.jpg (565.64 KB, 1280x1811, 56345634.jpg) ImgOps Exif Google iqdb


 No.8074

File: 1483743185728-0.gif (1.1 MB, 700x529, tumblr_o1cm8w6h1s1techudo1….gif) ImgOps Google iqdb

File: 1483743185728-1.png (101.5 KB, 642x537, ClipboardImage.png) ImgOps Google iqdb

File: 1483743185728-2.png (274.23 KB, 696x618, ClipboardImage.png) ImgOps Google iqdb


 No.10953

File: 1488370313448.jpg (107.96 KB, 907x634, C4WzpNgUoAAV637.jpg orig.jpg) ImgOps Exif Google iqdb


 No.10956

File: 1488380244590.jpeg (531.56 KB, 658x847, 5a474e7cc8661f724d93dabd3….jpeg) ImgOps Google iqdb


 No.10969

File: 1488392750685.jpg (106.1 KB, 484x750, 58920031_p0.jpg) ImgOps Exif Google iqdb




File: 1488390756286-0.jpg (171.69 KB, 900x1434, 15_04_28_wei_by_nhawnuad-d….jpg) ImgOps Exif Google iqdb

File: 1488390756286-1.png (256.05 KB, 1000x750, 4882e46492d49ae9b46092ef6e….png) ImgOps Google iqdb

File: 1488390756286-2.jpg (111.05 KB, 679x960, 47751ecd2b304ba2fdd9d82384….jpg) ImgOps Exif Google iqdb

 No.10964[Reply]

Continuing this thread from the older boards.
Basically this thread is about drawings of sexy men, without any full nudity, boners/bulges or sexual/arousing things.

 No.10965

File: 1488390910121-0.jpg (321.21 KB, 862x1250, 44031580_p0.jpg) ImgOps Exif Google iqdb

File: 1488390910121-1.png (2.33 MB, 1531x1080, 50020174_p0.png) ImgOps Google iqdb

File: 1488390910121-2.png (1.28 MB, 1050x1400, 50028519_p0.png) ImgOps Google iqdb


 No.10966

File: 1488392004420-0.png (820.85 KB, 1300x1630, 50028519_p1.png) ImgOps Google iqdb

File: 1488392004420-1.png (547.1 KB, 800x848, 50356330_p0.png) ImgOps Google iqdb

File: 1488392004420-2.png (809.14 KB, 739x1000, 50460802_p0.png) ImgOps Google iqdb


 No.10967

File: 1488392088886-0.png (446.92 KB, 800x1132, 50511557_p0.png) ImgOps Google iqdb

File: 1488392088886-1.jpg (253.36 KB, 700x900, 51197322_p9.jpg) ImgOps Exif Google iqdb

File: 1488392088886-2.jpg (122.95 KB, 700x900, 51197322_p11.jpg) ImgOps Exif Google iqdb


 No.10968

File: 1488392404333-0.jpg (229.26 KB, 800x1000, 52661940_p3.jpg) ImgOps Exif Google iqdb

File: 1488392404333-1.png (2.04 MB, 3000x2000, 52688967_p0.png) ImgOps Google iqdb

File: 1488392404333-2.png (5.76 MB, 2000x2906, 53272496_p0.png) ImgOps Google iqdb




File: 1485190249715-0.jpg (137.52 KB, 735x1011, artretry2.jpg) ImgOps Exif Google iqdb

File: 1485190249715-1.jpg (181.71 KB, 1000x1376, MrI.RippedSpeedo_ib4f.jpg) ImgOps Exif Google iqdb

File: 1485190249715-2.jpg (126.55 KB, 613x800, 303904 - Bruce_Banner Hulk….jpg) ImgOps Exif Google iqdb

 No.10583[Reply]

Bearing in mind the new rules- here are some Superpowered types!
7 posts and 16 image replies omitted. Click reply to view.

 No.10686

File: 1485631913199-0.jpg (85.04 KB, 425x607, 47161_s_t_w_123_651lo_anon….jpg) ImgOps Exif Google iqdb

File: 1485631913199-1.jpg (49.95 KB, 416x780, 87571_20__20Christian_20Lo….jpg) ImgOps Exif Google iqdb

File: 1485631913199-2.jpg (64.16 KB, 472x634, 146182_20__20James_howlett….jpg) ImgOps Exif Google iqdb


 No.10693

File: 1485677496486-0.jpg (712.18 KB, 1280x1907, 1564777 - Deadpool Marvel ….jpg) ImgOps Exif Google iqdb

File: 1485677496486-1.jpg (415.82 KB, 1280x1120, 2042446 - Marvel Rokudenas….jpg) ImgOps Exif Google iqdb

File: 1485677496486-2.jpg (790.6 KB, 1216x1920, 2047038 - Deadpool Marvel ….jpg) ImgOps Exif Google iqdb


 No.10694

File: 1485677599584-0.png (1.66 MB, 1280x1811, 2024102 - Marvel Wolverine….png) ImgOps Google iqdb

File: 1485677599584-1.jpg (463.37 KB, 1280x1108, 2080614 - Deadpool Marvel ….jpg) ImgOps Exif Google iqdb

File: 1485677599584-2.jpg (386.18 KB, 1280x1543, tumblr_nv3xnvk7HB1ux2yx9o1….jpg) ImgOps Exif Google iqdb


 No.10962

File: 1488390471107-0.png (593.01 KB, 2000x1797, 50586877_p0.png) ImgOps Google iqdb

File: 1488390471107-1.png (479.16 KB, 1000x740, 50652553_p0.png) ImgOps Google iqdb

File: 1488390471107-2.png (413.79 KB, 800x800, 50744718_p0.png) ImgOps Google iqdb


 No.10963

File: 1488390529870-0.png (414.08 KB, 800x998, 51250100_p0.png) ImgOps Google iqdb

File: 1488390529870-1.png (1.44 MB, 1212x1715, 56363252_p12.png) ImgOps Google iqdb




File: 1488389670106-0.jpg (114.67 KB, 800x787, 15_05_10_cecco_by_nhawnuad….jpg) ImgOps Exif Google iqdb

File: 1488389670106-1.png (498.58 KB, 1000x1333, 547d9f7151560f5f6ceab349bb….png) ImgOps Google iqdb

File: 1488389670106-2.jpg (417.17 KB, 900x797, 13996702_big_p0.jpg) ImgOps Exif Google iqdb

 No.10957[Reply]

Bara drawings that don't necessarily fit in any category.

 No.10958

File: 1488389836582-0.jpg (430.28 KB, 900x792, 13996702_big_p1.jpg) ImgOps Exif Google iqdb

File: 1488389836583-1.jpg (429.59 KB, 900x796, 13996702_big_p2.jpg) ImgOps Exif Google iqdb

File: 1488389836583-2.jpg (400.25 KB, 900x798, 13996702_big_p3.jpg) ImgOps Exif Google iqdb


 No.10959

File: 1488389974475-0.jpg (379.07 KB, 900x830, 13996702_big_p4.jpg) ImgOps Exif Google iqdb

File: 1488389974475-1.jpg (399.33 KB, 900x792, 13996702_big_p5.jpg) ImgOps Exif Google iqdb

File: 1488389974475-2.png (226.1 KB, 800x774, 20150426_zoro__fundoshi_s_….png) ImgOps Google iqdb


 No.10960

File: 1488390141252-0.jpg (74.37 KB, 590x860, 24073488_big_p1.jpg) ImgOps Exif Google iqdb

File: 1488390141252-1.jpg (2.53 MB, 4092x3542, 38278455_p0.jpg) ImgOps Exif Google iqdb

File: 1488390141252-2.jpg (135.83 KB, 1753x1240, 40091987_p0.jpg) ImgOps Exif Google iqdb


 No.10961

File: 1488390284261-0.jpg (121.17 KB, 1240x1753, 40384813_p0.jpg) ImgOps Exif Google iqdb

File: 1488390284262-1.jpg (742.44 KB, 1680x2333, 41405269_p7.jpg) ImgOps Exif Google iqdb

File: 1488390284262-2.jpg (790.53 KB, 1680x2333, 41405269_p8.jpg) ImgOps Exif Google iqdb




File: 1486332973281-0.jpg (3.34 MB, 3022x3997, 61305290_p0.jpg) ImgOps Exif Google iqdb

File: 1486332973281-1.jpg (448.72 KB, 1200x675, 58794745_p0.jpg) ImgOps Exif Google iqdb

File: 1486332973281-2.jpg (172.84 KB, 739x800, 11574025_p0.jpg) ImgOps Exif Google iqdb

 No.10787[Reply]

 No.10788

File: 1486333115017-0.jpg (622.12 KB, 1200x1400, 60596378_p0.jpg) ImgOps Exif Google iqdb

File: 1486333115017-1.jpg (1.4 MB, 1217x1229, 55868131_p2.jpg) ImgOps Exif Google iqdb

File: 1486333115017-2.jpg (1.38 MB, 1217x1229, 55868131_p3.jpg) ImgOps Exif Google iqdb


 No.10789

File: 1486333311128-0.jpg (797.54 KB, 800x700, 17351599_p0.jpg) ImgOps Exif Google iqdb

File: 1486333311128-1.png (17.82 KB, 500x400, log_017.png) ImgOps Google iqdb

File: 1486333311128-2.png (17.85 KB, 500x400, log_018.png) ImgOps Google iqdb


 No.10790

File: 1486333612396-0.jpg (634.19 KB, 1280x960, tumblr_n90b3mbQCO1tcgitjo1….jpg) ImgOps Exif Google iqdb

File: 1486333612396-1.png (768.72 KB, 1280x1252, tumblr_n8t5oyTvIV1tcgitjo1….png) ImgOps Google iqdb

File: 1486333612396-2.jpg (959.34 KB, 1280x1609, tumblr_n8spvtgHtH1tcgitjo1….jpg) ImgOps Exif Google iqdb


 No.10955

File: 1488371809925-0.jpg (124.75 KB, 900x845, C5lKT-EUoAACdtE.jpg orig.jpg) ImgOps Exif Google iqdb

File: 1488371809925-1.jpg (260.05 KB, 1062x1476, CmxjQrnVUAAcWoC.jpg orig.jpg) ImgOps Exif Google iqdb

File: 1488371809925-2.jpg (215.37 KB, 1035x1035, CyRw_F0UUAE3w73.jpg) ImgOps Exif Google iqdb




File: 1485007329630-0.png (781.7 KB, 990x559, 1.png) ImgOps Google iqdb

File: 1485007329630-1.png (742.92 KB, 982x562, 2.png) ImgOps Google iqdb

File: 1485007329630-2.png (616.62 KB, 556x993, 3.png) ImgOps Google iqdb

 No.10540[Reply]

Someone posted in /fur/ artworks for the furry characters. I made this post so you can post art for the human characters. Which are hot as well.
19 posts and 18 image replies omitted. Click reply to view.

 No.10836

File: 1487044430701-0.png (1.2 MB, 1020x1364, C4mBSrwVYAAx7_C.png orig.png) ImgOps Google iqdb

File: 1487044430701-1.jpg (195.35 KB, 1372x1372, C4dmS7sUMAAt22J.jpg orig.jpg) ImgOps Exif Google iqdb

File: 1487044430701-2.jpg (672.96 KB, 2894x4093, C4jt3WsUcAA6njA.jpg orig.jpg) ImgOps Exif Google iqdb


 No.10839

No one is extracting the assets?

 No.10848

>>10839
What do you mean by extracting the assets, it's a mobile card game, it doesn't really have any h-scenes in it. Just a lot of bara guys/fanservice

 No.10854

File: 1487302281486-0.jpg (174.44 KB, 1300x1000, C4IB3OXXAAAqxBi.jpg) ImgOps Exif Google iqdb

File: 1487302281486-1.jpg (297.08 KB, 1447x2047, C3_rgBfVYAE_AJh.jpg) ImgOps Exif Google iqdb

File: 1487302281486-2.jpg (412.79 KB, 1536x2048, C4WkD7OUYAA7kyX.jpg) ImgOps Exif Google iqdb

>>10848
having high quality rips of the character illustrations would be nice

 No.10952

File: 1488366574044-0.jpg (100.43 KB, 721x1020, C5wrfBKVAAId95S.jpg orig.jpg) ImgOps Exif Google iqdb

File: 1488366574044-1.jpg (103.34 KB, 600x800, C5NAV5qUkAA_3aS.jpg orig.jpg) ImgOps Exif Google iqdb

File: 1488366574044-2.jpg (51.27 KB, 735x651, C5LTGCAUkAAubhM.jpg orig.jpg) ImgOps Exif Google iqdb




File: 1463116052651.jpg (54.51 KB, 400x486, tumblr_o51iems1UR1u8c5wlo5….jpg) ImgOps Exif Google iqdb

 No.5449[Reply]

Restarting this thread, sad the old one is gone :(
70 posts and 119 image replies omitted. Click reply to view.

 No.7599

File: 1479977385099.jpg (1.41 MB, 1876x1910, Bara.jpg) ImgOps Exif Google iqdb


 No.7600

File: 1480013751620.jpg (342.9 KB, 683x965, 48132619_p32_master1200.jpg) ImgOps Exif Google iqdb


 No.7759

File: 1481606173496-0.jpg (404.56 KB, 800x800, 1467763907382.jpg) ImgOps Exif Google iqdb

File: 1481606173496-1.jpg (399.44 KB, 800x727, 1467763948051.jpg) ImgOps Exif Google iqdb

Literally had to fetch these from my Google Drive

 No.7801

File: 1481982259362.jpg (151.02 KB, 956x1352, CxD-sirio-blog74551.jpg) ImgOps Exif Google iqdb


 No.10951

File: 1488366297866.jpg (241.88 KB, 1000x1400, C5N-XXBVcAAAIB5.jpg orig.jpg) ImgOps Exif Google iqdb




File: 1463740778733.jpg (501.17 KB, 800x693, tumblr_o6kxhwDxhR1tkdbrjo1….jpg) ImgOps Exif Google iqdb

 No.5613[Reply]

licking and fucking preferably
15 posts and 33 image replies omitted. Click reply to view.

 No.6550

File: 1470013818644.jpg (442.12 KB, 859x1214, Å{é╚Æj0013.jpg) ImgOps Exif Google iqdb


 No.6552

File: 1470014066694.jpg (598.42 KB, 1024x1280, 06.jpg) ImgOps Exif Google iqdb


 No.6553

sauce on that hanzo or that artist for the matter

 No.6570

File: 1470122480770-0.jpg (398.01 KB, 900x1200, h.jpg) ImgOps Exif Google iqdb

File: 1470122480771-1.jpg (357.87 KB, 900x1200, g.jpg) ImgOps Exif Google iqdb

File: 1470122480771-2.jpg (436.85 KB, 1200x900, f.jpg) ImgOps Exif Google iqdb


 No.10950

File: 1488366103875.jpg (351.53 KB, 2150x2715, C5TAbiPUoAABc5k.jpg orig.jpg) ImgOps Exif Google iqdb




Delete Post [ ]
Previous [1] [2] [3] [4] [5] [6] [7] [8] [9] [10] [11]
| Catalog
[ dis ] [ 2D / 3D / fur / alt / ptr ] [ doujin / kemono ] [ rs ] [ Rules ]